WXM80 ListenWXM80 Stop

You find our weather info also at:

UK Metoffice

WeatherCloud

Weather Underground

Northeastern Weather Network

AWEKAS

Citizen Weather Observer Program (CWOP)

HAMweather, WeatherForYou, PWS Weather


Weather Underground History page Text

Daily Summary for April 22, 2017 Units:  English    Metric   Both
« Previous Day
Next Day »
Daily Weekly Monthly Yearly Custom
  High: Low: Average:
Temperature: 52.3 °F 47.0 °F 49.6 °F
Dew Point: 50.9 °F 44.5 °F 48.1 °F
Humidity: 99 % 83 % 95 %
Wind Speed: 7.8 mph 0.0 mph 1.5 mph
Wind Gust: 10.0 mph - -
Wind:- - ESE
Pressure: 29.97 in 29.86 in -
Precipitation: 0.00 in    
Historical Graphs
 
 
Tabular Data for April 22, 2017
Time Temperature Dew Point Pressure Wind Wind Speed Wind Gust Humidity Rainfall Rate (Hourly)
00:04 47.2 °F 46.7 °F 29.91 in East 4.2 mph 6.0 mph 98 % 0.00 in
00:09 47.2 °F 46.7 °F 29.91 in ENE 2.7 mph 3.5 mph 98 % 0.00 in
00:14 47.3 °F 46.8 °F 29.91 in East 2.8 mph 5.0 mph 98 % 0.00 in
00:19 47.3 °F 46.8 °F 29.91 in ENE 2.7 mph 4.6 mph 98 % 0.00 in
00:24 47.3 °F 46.8 °F 29.90 in ENE 2.9 mph 5.8 mph 98 % 0.00 in
00:29 47.3 °F 46.8 °F 29.90 in East 2.9 mph 5.0 mph 98 % 0.00 in
00:34 47.3 °F 46.8 °F 29.90 in East 4.0 mph 5.8 mph 98 % 0.00 in
00:39 47.2 °F 46.7 °F 29.90 in ENE 2.5 mph 3.5 mph 98 % 0.00 in
00:44 47.2 °F 46.7 °F 29.90 in East 2.6 mph 4.6 mph 98 % 0.00 in
00:49 47.2 °F 46.7 °F 29.91 in East 2.6 mph 4.6 mph 98 % 0.00 in
00:55 47.2 °F 46.7 °F 29.91 in ENE 1.8 mph 3.5 mph 98 % 0.00 in
01:00 47.3 °F 46.8 °F 29.91 in East 2.2 mph 3.5 mph 98 % 0.00 in
01:05 47.3 °F 46.8 °F 29.90 in ENE 2.1 mph 3.0 mph 98 % 0.00 in
01:06 47.3 °F 46.8 °F 29.90 in ENE 2.1 mph 3.5 mph 98 % 0.00 in
01:11 47.3 °F 46.8 °F 29.91 in ENE 2.2 mph 4.0 mph 98 % 0.00 in
01:16 47.3 °F 46.8 °F 29.90 in ENE 4.7 mph 6.9 mph 98 % 0.00 in
01:21 47.2 °F 46.7 °F 29.90 in ENE 3.3 mph 4.6 mph 98 % 0.00 in
01:26 47.2 °F 46.7 °F 29.89 in East 4.2 mph 8.1 mph 98 % 0.00 in
01:31 47.1 °F 46.6 °F 29.89 in ENE 3.7 mph 7.0 mph 98 % 0.00 in
01:36 47.1 °F 46.6 °F 29.90 in NE 3.1 mph 4.0 mph 98 % 0.00 in
01:41 47.1 °F 46.6 °F 29.90 in NE 2.1 mph 4.0 mph 98 % 0.00 in
01:46 47.0 °F 46.5 °F 29.89 in NE 1.2 mph 3.5 mph 98 % 0.00 in
01:51 47.0 °F 46.5 °F 29.89 in NE 2.4 mph 4.0 mph 98 % 0.00 in
01:56 47.0 °F 46.5 °F 29.89 in NE 2.8 mph 4.6 mph 98 % 0.00 in
02:01 47.0 °F 46.5 °F 29.89 in East 2.8 mph 5.0 mph 98 % 0.00 in
02:06 47.1 °F 46.6 °F 29.89 in NE 2.3 mph 3.5 mph 98 % 0.00 in
02:11 47.2 °F 46.7 °F 29.89 in ENE 3.2 mph 3.5 mph 98 % 0.00 in
02:16 47.2 °F 46.7 °F 29.89 in NE 2.2 mph 3.5 mph 98 % 0.00 in
02:22 47.2 °F 46.7 °F 29.89 in ENE 2.4 mph 3.5 mph 98 % 0.00 in
02:27 47.3 °F 46.8 °F 29.90 in ENE 1.9 mph 4.6 mph 98 % 0.00 in
02:32 47.3 °F 46.8 °F 29.90 in ENE 0.7 mph 3.0 mph 98 % 0.00 in
02:37 47.4 °F 46.9 °F 29.90 in Calm   1.2 mph 98 % 0.00 in
02:42 47.4 °F 46.9 °F 29.90 in ENE 0.5 mph 2.3 mph 98 % 0.00 in
02:47 47.4 °F 46.9 °F 29.89 in Calm   2.0 mph 98 % 0.00 in
02:52 47.5 °F 47.0 °F 29.89 in NE 1.0 mph 3.0 mph 98 % 0.00 in
02:57 47.5 °F 47.0 °F 29.90 in NNE 1.6 mph 3.5 mph 98 % 0.00 in
03:02 47.6 °F 47.1 °F 29.90 in Calm   1.2 mph 98 % 0.00 in
03:07 47.6 °F 47.1 °F 29.90 in Calm   2.0 mph 98 % 0.00 in
03:12 47.6 °F 47.1 °F 29.90 in Calm   2.0 mph 98 % 0.00 in
03:17 47.6 °F 47.1 °F 29.90 in Calm   1.0 mph 98 % 0.00 in
03:22 47.7 °F 47.2 °F 29.89 in Calm   1.0 mph 98 % 0.00 in
03:27 47.7 °F 47.2 °F 29.89 in Calm   1.0 mph 98 % 0.00 in
03:32 47.7 °F 47.2 °F 29.89 in Calm     98 % 0.00 in
03:37 47.7 °F 47.2 °F 29.88 in Calm   1.2 mph 98 % 0.00 in
03:42 47.7 °F 47.4 °F 29.88 in Calm   1.0 mph 99 % 0.00 in
03:47 47.8 °F 47.5 °F 29.88 in NNE 1.0 mph 3.0 mph 99 % 0.00 in
03:52 47.8 °F 47.5 °F 29.88 in Calm   2.0 mph 99 % 0.00 in
03:57 47.8 °F 47.5 °F 29.87 in Calm     99 % 0.00 in
04:02 47.8 °F 47.5 °F 29.87 in Calm     99 % 0.00 in
04:07 47.8 °F 47.5 °F 29.87 in Calm   1.0 mph 99 % 0.00 in
04:12 47.9 °F 47.6 °F 29.87 in NNE 1.0 mph 3.0 mph 99 % 0.00 in
04:17 47.9 °F 47.6 °F 29.86 in NNE 3.0 mph 5.0 mph 99 % 0.00 in
04:22 47.9 °F 47.6 °F 29.87 in NNE 2.0 mph 5.0 mph 99 % 0.00 in
04:27 47.9 °F 47.6 °F 29.86 in NNE 2.0 mph 4.0 mph 99 % 0.00 in
04:32 48.0 °F 47.7 °F 29.86 in NNE 3.1 mph 4.0 mph 99 % 0.00 in
04:37 48.1 °F 47.6 °F 29.86 in NNE 2.0 mph 5.0 mph 98 % 0.00 in
04:42 48.1 °F 47.6 °F 29.86 in NNE 0.2 mph 3.5 mph 98 % 0.00 in
04:47 48.1 °F 47.6 °F 29.86 in Calm   1.2 mph 98 % 0.00 in
04:52 48.1 °F 47.6 °F 29.86 in Calm   3.0 mph 98 % 0.00 in
04:57 48.1 °F 47.6 °F 29.86 in NNE 0.3 mph 2.3 mph 98 % 0.00 in
05:02 48.1 °F 47.6 °F 29.86 in NE 0.3 mph 3.5 mph 98 % 0.00 in
05:07 48.1 °F 47.6 °F 29.87 in NE 0.2 mph 2.3 mph 98 % 0.00 in
05:12 48.1 °F 47.6 °F 29.87 in Calm     98 % 0.00 in
05:17 48.1 °F 47.6 °F 29.87 in NE 0.1 mph 2.3 mph 98 % 0.00 in
05:19 48.1 °F 47.6 °F 29.87 in NE 1.5 mph 2.3 mph 98 % 0.00 in
05:24 48.1 °F 47.6 °F 29.88 in NNE 1.0 mph 3.5 mph 98 % 0.00 in
05:29 48.1 °F 47.6 °F 29.88 in North 3.2 mph 4.6 mph 98 % 0.00 in
05:34 48.2 °F 47.7 °F 29.87 in NNE 0.1 mph 2.3 mph 98 % 0.00 in
05:39 48.2 °F 47.7 °F 29.86 in ENE 1.0 mph 3.5 mph 98 % 0.00 in
05:44 48.2 °F 47.7 °F 29.87 in ENE 0.1 mph 2.3 mph 98 % 0.00 in
05:49 48.2 °F 47.7 °F 29.87 in NE 0.6 mph 2.3 mph 98 % 0.00 in
05:54 48.2 °F 47.7 °F 29.87 in NE 1.6 mph 3.5 mph 98 % 0.00 in
05:59 48.1 °F 47.6 °F 29.88 in NNE 1.2 mph 3.0 mph 98 % 0.00 in
06:04 48.1 °F 47.6 °F 29.88 in NNE 0.9 mph 2.0 mph 98 % 0.00 in
06:09 48.1 °F 47.6 °F 29.88 in NNE 2.6 mph 4.6 mph 98 % 0.00 in
06:14 48.1 °F 47.6 °F 29.89 in ENE 2.9 mph 4.6 mph 98 % 0.00 in
06:19 48.1 °F 47.6 °F 29.88 in ENE 1.0 mph 2.3 mph 98 % 0.00 in
06:24 48.1 °F 47.6 °F 29.88 in NE 2.4 mph 3.5 mph 98 % 0.00 in
06:29 48.1 °F 47.6 °F 29.88 in ENE 2.6 mph 3.5 mph 98 % 0.00 in
06:34 48.1 °F 47.6 °F 29.89 in ENE 0.1 mph 2.3 mph 98 % 0.00 in
06:39 48.1 °F 47.6 °F 29.89 in ENE 0.5 mph 2.3 mph 98 % 0.00 in
06:44 48.1 °F 47.6 °F 29.88 in ENE 2.9 mph 3.5 mph 98 % 0.00 in
06:49 48.2 °F 47.7 °F 29.88 in ENE 3.1 mph 6.9 mph 98 % 0.00 in
06:50 48.2 °F 47.7 °F 29.88 in NE 3.0 mph 6.9 mph 98 % 0.00 in
06:55 48.2 °F 47.7 °F 29.88 in NE 3.7 mph 8.1 mph 98 % 0.00 in
07:00 48.2 °F 47.7 °F 29.88 in ENE 2.2 mph 3.5 mph 98 % 0.00 in
07:05 48.1 °F 47.6 °F 29.88 in NE 3.1 mph 6.9 mph 98 % 0.00 in
07:10 48.1 °F 47.6 °F 29.88 in ENE 3.0 mph 4.0 mph 98 % 0.00 in
07:15 48.0 °F 47.7 °F 29.88 in ENE 4.1 mph 6.9 mph 99 % 0.00 in
07:20 47.9 °F 47.6 °F 29.88 in ENE 3.5 mph 5.0 mph 99 % 0.00 in
07:25 47.9 °F 47.6 °F 29.88 in ENE 2.8 mph 5.8 mph 99 % 0.00 in
07:30 47.9 °F 47.6 °F 29.88 in ENE 2.8 mph 5.8 mph 99 % 0.00 in
07:35 47.9 °F 47.6 °F 29.88 in ENE 7.8 mph 10.0 mph 99 % 0.00 in
07:40 47.8 °F 47.5 °F 29.88 in NE 6.0 mph 8.1 mph 99 % 0.00 in
07:45 47.8 °F 47.5 °F 29.89 in ENE 4.4 mph 8.1 mph 99 % 0.00 in
07:50 47.7 °F 47.2 °F 29.88 in East 3.9 mph 6.9 mph 98 % 0.00 in
07:55 47.7 °F 47.2 °F 29.89 in NE 3.1 mph 4.6 mph 98 % 0.00 in
08:00 47.8 °F 47.3 °F 29.89 in ENE 2.5 mph 5.0 mph 98 % 0.00 in
08:05 47.8 °F 47.3 °F 29.89 in ENE 4.5 mph 8.1 mph 98 % 0.00 in
08:10 47.7 °F 47.2 °F 29.89 in NE 0.9 mph 2.3 mph 98 % 0.00 in
08:15 47.8 °F 47.3 °F 29.90 in NE 0.7 mph 2.3 mph 98 % 0.00 in
08:20 47.8 °F 47.3 °F 29.90 in ENE 2.9 mph 4.6 mph 98 % 0.00 in
08:25 47.8 °F 47.3 °F 29.90 in ENE 2.5 mph 3.5 mph 98 % 0.00 in
08:26 47.8 °F 47.3 °F 29.90 in ENE 2.7 mph 4.0 mph 98 % 0.00 in
08:31 47.7 °F 47.2 °F 29.90 in NE 1.1 mph 2.3 mph 98 % 0.00 in
08:36 47.8 °F 47.3 °F 29.90 in North 3.3 mph 5.8 mph 98 % 0.00 in
08:41 47.9 °F 47.4 °F 29.90 in ENE 1.4 mph 3.5 mph 98 % 0.00 in
08:46 48.0 °F 47.5 °F 29.90 in NE 3.9 mph 4.6 mph 98 % 0.00 in
08:51 47.9 °F 47.4 °F 29.90 in NE 1.8 mph 6.9 mph 98 % 0.00 in
08:56 48.0 °F 47.5 °F 29.91 in ENE 1.7 mph 4.6 mph 98 % 0.00 in
09:01 47.9 °F 47.4 °F 29.91 in NE 1.0 mph 3.5 mph 98 % 0.00 in
09:06 47.9 °F 47.4 °F 29.91 in ENE 3.0 mph 4.6 mph 98 % 0.00 in
09:11 47.9 °F 47.4 °F 29.90 in ENE 2.8 mph 3.5 mph 98 % 0.00 in
09:16 47.9 °F 47.4 °F 29.91 in ENE 2.9 mph 6.9 mph 98 % 0.00 in
09:21 48.0 °F 47.5 °F 29.90 in ENE 1.8 mph 4.0 mph 98 % 0.00 in
09:26 48.0 °F 47.5 °F 29.91 in ENE 2.4 mph 4.6 mph 98 % 0.00 in
09:31 48.1 °F 47.6 °F 29.91 in ENE 2.6 mph 4.6 mph 98 % 0.00 in
09:36 48.1 °F 47.6 °F 29.91 in ENE 0.7 mph 3.5 mph 98 % 0.00 in
09:41 48.1 °F 47.6 °F 29.91 in East 1.3 mph 3.5 mph 98 % 0.00 in
09:46 48.3 °F 47.8 °F 29.91 in East 1.8 mph 3.5 mph 98 % 0.00 in
09:51 48.5 °F 48.0 °F 29.91 in East 3.1 mph 5.0 mph 98 % 0.00 in
09:56 48.6 °F 48.1 °F 29.91 in ENE 2.2 mph 3.5 mph 98 % 0.00 in
10:01 48.8 °F 48.3 °F 29.92 in East 1.6 mph 3.5 mph 98 % 0.00 in
10:06 48.9 °F 48.4 °F 29.91 in East 1.6 mph 3.5 mph 98 % 0.00 in
10:11 49.1 °F 48.6 °F 29.92 in ENE 1.4 mph 4.6 mph 98 % 0.00 in
10:16 49.3 °F 48.8 °F 29.92 in ENE 2.1 mph 3.5 mph 98 % 0.00 in
10:21 49.4 °F 48.9 °F 29.92 in ENE 2.3 mph 3.5 mph 98 % 0.00 in
10:26 49.4 °F 48.9 °F 29.92 in ENE 2.1 mph 3.5 mph 98 % 0.00 in
10:31 49.4 °F 48.9 °F 29.92 in ENE 1.9 mph 3.5 mph 98 % 0.00 in
10:36 49.4 °F 48.9 °F 29.92 in ENE 1.8 mph 3.5 mph 98 % 0.00 in
10:41 49.4 °F 48.9 °F 29.92 in ENE 1.9 mph 3.5 mph 98 % 0.00 in
10:46 49.6 °F 49.1 °F 29.91 in East 3.5 mph 5.0 mph 98 % 0.00 in
10:51 49.7 °F 48.9 °F 29.91 in East 2.3 mph 5.0 mph 97 % 0.00 in
10:56 49.9 °F 49.4 °F 29.92 in ENE 1.8 mph 4.6 mph 98 % 0.00 in
11:01 49.9 °F 49.1 °F 29.92 in ENE 2.9 mph 3.5 mph 97 % 0.00 in
11:06 50.0 °F 49.2 °F 29.92 in East 2.4 mph 4.6 mph 97 % 0.00 in
11:11 50.4 °F 49.6 °F 29.92 in ENE 1.8 mph 3.5 mph 97 % 0.00 in
11:16 50.7 °F 49.9 °F 29.92 in East 1.9 mph 3.5 mph 97 % 0.00 in
11:21 50.9 °F 49.8 °F 29.92 in ESE 2.1 mph 3.5 mph 96 % 0.00 in
11:26 51.0 °F 49.6 °F 29.92 in NE 2.8 mph 3.5 mph 95 % 0.00 in
11:31 50.8 °F 48.8 °F 29.92 in ENE 2.2 mph 3.5 mph 93 % 0.00 in
11:36 50.8 °F 48.8 °F 29.92 in ENE 2.8 mph 3.5 mph 93 % 0.00 in
11:41 50.8 °F 48.6 °F 29.92 in ENE 1.3 mph 3.5 mph 92 % 0.00 in
11:46 50.8 °F 48.6 °F 29.92 in ENE 0.9 mph 2.3 mph 92 % 0.00 in
11:51 50.8 °F 48.6 °F 29.92 in ENE 0.8 mph 3.5 mph 92 % 0.00 in
11:56 50.9 °F 48.7 °F 29.91 in ENE 0.4 mph 3.5 mph 92 % 0.00 in
12:01 50.8 °F 48.3 °F 29.91 in ENE 2.2 mph 3.5 mph 91 % 0.00 in
12:06 50.8 °F 48.3 °F 29.91 in ENE 2.0 mph 3.5 mph 91 % 0.00 in
12:11 50.7 °F 47.9 °F 29.91 in ENE 3.2 mph 4.6 mph 90 % 0.00 in
12:14 50.6 °F 47.8 °F 29.91 in ENE 3.7 mph 4.6 mph 90 % 0.00 in
12:24 50.3 °F 47.5 °F 29.91 in NE 3.3 mph 4.0 mph 90 % 0.00 in
12:29 50.3 °F 47.8 °F 29.91 in ENE 2.6 mph 4.6 mph 91 % 0.00 in
12:34 50.3 °F 47.8 °F 29.91 in ENE 0.6 mph 2.3 mph 91 % 0.00 in
12:44 50.6 °F 48.4 °F 29.90 in ENE 2.9 mph 4.0 mph 92 % 0.00 in
12:49 50.7 °F 48.5 °F 29.90 in ENE 1.5 mph 3.5 mph 92 % 0.00 in
12:54 50.9 °F 48.7 °F 29.90 in East 1.8 mph 3.5 mph 92 % 0.00 in
13:00 50.9 °F 48.4 °F 29.90 in East 1.7 mph 3.5 mph 91 % 0.00 in
13:05 50.9 °F 48.4 °F 29.90 in ENE 1.6 mph 3.5 mph 91 % 0.01 in
13:10 50.9 °F 48.7 °F 29.89 in East 1.7 mph 3.5 mph 92 % 0.02 in
13:15 50.9 °F 48.7 °F 29.89 in East 2.4 mph 5.0 mph 92 % 0.02 in
13:20 51.0 °F 49.0 °F 29.89 in ESE 1.6 mph 4.6 mph 93 % 0.03 in
13:25 51.2 °F 49.2 °F 29.89 in East 1.3 mph 3.0 mph 93 % 0.03 in
13:30 51.2 °F 49.2 °F 29.89 in ESE 0.8 mph 2.0 mph 93 % 0.03 in
13:32 51.3 °F 49.6 °F 29.88 in East 1.8 mph 5.8 mph 94 % 0.03 in
13:42 51.5 °F 49.8 °F 29.89 in ENE 1.4 mph 2.3 mph 94 % 0.03 in
13:47 51.7 °F 50.0 °F 29.89 in East 2.1 mph 3.5 mph 94 % 0.03 in
13:53 51.9 °F 50.2 °F 29.90 in ENE 2.0 mph 3.5 mph 94 % 0.03 in
13:58 51.9 °F 50.2 °F 29.90 in East 1.3 mph 3.5 mph 94 % 0.03 in
14:08 51.8 °F 49.8 °F 29.89 in ENE 0.9 mph 2.3 mph 93 % 0.02 in
14:13 51.7 °F 49.7 °F 29.89 in East 0.8 mph 3.5 mph 93 % 0.01 in
14:18 51.6 °F 49.6 °F 29.89 in East 1.5 mph 3.5 mph 93 % 0.00 in
14:23 51.6 °F 49.4 °F 29.89 in East 0.4 mph 2.3 mph 92 % 0.00 in
14:28 51.5 °F 49.3 °F 29.89 in SE 1.7 mph 3.5 mph 92 % 0.00 in
14:33 51.4 °F 49.2 °F 29.89 in SE 0.7 mph 2.3 mph 92 % 0.00 in
14:38 51.3 °F 49.1 °F 29.89 in SE 0.7 mph 1.2 mph 92 % 0.00 in
14:43 51.3 °F 48.8 °F 29.89 in Calm   1.2 mph 91 % 0.00 in
14:48 51.2 °F 49.0 °F 29.89 in SE 0.3 mph 1.2 mph 92 % 0.00 in
14:53 51.2 °F 49.0 °F 29.89 in SE 1.5 mph 2.3 mph 92 % 0.01 in
14:58 51.2 °F 49.0 °F 29.89 in SE 0.9 mph 2.3 mph 92 % 0.01 in
15:03 51.2 °F 49.2 °F 29.89 in Calm   1.2 mph 93 % 0.01 in
15:08 51.2 °F 49.2 °F 29.89 in Calm   1.2 mph 93 % 0.02 in
15:13 51.2 °F 49.2 °F 29.89 in Calm     93 % 0.02 in
15:18 51.2 °F 49.2 °F 29.89 in Calm     93 % 0.02 in
15:23 51.3 °F 49.3 °F 29.89 in Calm     93 % 0.02 in
15:28 51.3 °F 49.6 °F 29.88 in Calm     94 % 0.02 in
15:33 51.4 °F 49.7 °F 29.89 in Calm     94 % 0.02 in
15:38 51.4 °F 49.7 °F 29.89 in Calm     94 % 0.02 in
15:43 51.5 °F 49.8 °F 29.88 in Calm     94 % 0.02 in
15:48 51.7 °F 50.0 °F 29.89 in Calm     94 % 0.02 in
15:53 51.7 °F 50.3 °F 29.89 in Calm     95 % 0.02 in
15:58 51.8 °F 50.4 °F 29.89 in Calm     95 % 0.02 in
16:03 51.7 °F 50.0 °F 29.89 in Calm     94 % 0.01 in
16:08 51.8 °F 50.1 °F 29.89 in SE 0.1 mph 1.2 mph 94 % 0.01 in
16:14 51.9 °F 50.2 °F 29.89 in Calm     94 % 0.01 in
16:18 52.0 °F 50.3 °F 29.90 in Calm     94 % 0.01 in
16:23 52.1 °F 50.4 °F 29.89 in Calm     94 % 0.01 in
16:28 52.1 °F 50.7 °F 29.89 in Calm   1.2 mph 95 % 0.01 in
16:33 52.2 °F 50.8 °F 29.89 in Calm     95 % 0.01 in
16:38 52.2 °F 50.8 °F 29.89 in Calm   1.0 mph 95 % 0.01 in
16:43 52.3 °F 50.9 °F 29.90 in NW 1.5 mph 3.5 mph 95 % 0.01 in
16:48 52.3 °F 50.6 °F 29.90 in NW 0.3 mph 2.0 mph 94 % 0.01 in
16:59 52.1 °F 50.4 °F 29.90 in Calm     94 % 0.00 in
17:04 52.0 °F 50.3 °F 29.91 in NW 0.3 mph 2.0 mph 94 % 0.00 in
17:09 51.9 °F 50.2 °F 29.91 in NW 1.3 mph 2.3 mph 94 % 0.00 in
17:14 51.8 °F 49.8 °F 29.91 in NW 0.7 mph 2.3 mph 93 % 0.00 in
17:19 51.7 °F 50.0 °F 29.91 in Calm   1.2 mph 94 % 0.00 in
17:24 51.5 °F 49.8 °F 29.91 in Calm     94 % 0.00 in
17:29 51.5 °F 49.8 °F 29.91 in Calm     94 % 0.00 in
17:34 51.6 °F 49.9 °F 29.91 in Calm     94 % 0.00 in
17:39 51.6 °F 49.9 °F 29.91 in Calm     94 % 0.00 in
17:44 51.6 °F 49.9 °F 29.92 in NW 0.3 mph 2.3 mph 94 % 0.00 in
17:49 51.7 °F 50.0 °F 29.92 in Calm   1.2 mph 94 % 0.00 in
17:54 51.7 °F 50.0 °F 29.91 in Calm     94 % 0.00 in
17:59 51.7 °F 50.0 °F 29.91 in Calm     94 % 0.00 in
18:04 51.7 °F 50.0 °F 29.91 in Calm   1.0 mph 94 % 0.00 in
18:09 51.7 °F 50.0 °F 29.91 in Calm   1.2 mph 94 % 0.00 in
18:14 51.7 °F 50.0 °F 29.91 in NW 0.9 mph 3.5 mph 94 % 0.00 in
18:19 51.8 °F 50.1 °F 29.90 in NW 0.8 mph 2.0 mph 94 % 0.00 in
18:24 51.8 °F 50.1 °F 29.90 in NW 1.4 mph 2.3 mph 94 % 0.00 in
18:29 51.8 °F 50.4 °F 29.90 in West 1.3 mph 2.3 mph 95 % 0.00 in
18:34 51.8 °F 50.4 °F 29.90 in West 2.0 mph 3.5 mph 95 % 0.00 in
18:39 51.9 °F 50.5 °F 29.90 in West 0.6 mph 2.3 mph 95 % 0.00 in
18:44 51.9 °F 50.5 °F 29.90 in WSW 2.1 mph 3.5 mph 95 % 0.00 in
18:50 51.9 °F 50.5 °F 29.91 in WSW 1.3 mph 3.5 mph 95 % 0.00 in
18:55 51.9 °F 50.5 °F 29.91 in WSW 4.5 mph 5.8 mph 95 % 0.00 in
19:00 51.9 °F 50.5 °F 29.91 in WSW 1.1 mph 3.5 mph 95 % 0.00 in
19:05 51.9 °F 50.5 °F 29.91 in WSW 0.4 mph 2.3 mph 95 % 0.00 in
19:10 51.9 °F 50.5 °F 29.91 in Calm   2.3 mph 95 % 0.00 in
19:15 51.9 °F 50.5 °F 29.91 in WSW 0.7 mph 3.5 mph 95 % 0.00 in
19:20 51.9 °F 50.5 °F 29.91 in WSW 0.8 mph 2.3 mph 95 % 0.00 in
19:25 51.8 °F 50.4 °F 29.91 in Calm   2.3 mph 95 % 0.00 in
19:30 51.8 °F 50.4 °F 29.92 in Calm   2.3 mph 95 % 0.00 in
19:35 51.8 °F 50.4 °F 29.92 in Calm   2.3 mph 95 % 0.00 in
19:40 51.8 °F 50.4 °F 29.92 in WSW 1.1 mph 3.5 mph 95 % 0.00 in
19:45 51.7 °F 50.3 °F 29.92 in Calm   3.5 mph 95 % 0.00 in
19:46 51.7 °F 50.3 °F 29.92 in WSW 1.5 mph 3.5 mph 95 % 0.00 in
19:51 51.7 °F 50.3 °F 29.92 in WSW 1.0 mph 3.5 mph 95 % 0.00 in
19:56 51.7 °F 50.3 °F 29.92 in WSW 0.8 mph 2.3 mph 95 % 0.00 in
20:01 51.6 °F 50.2 °F 29.93 in WSW 0.4 mph 3.5 mph 95 % 0.00 in
20:06 51.6 °F 50.2 °F 29.93 in Calm     95 % 0.00 in
20:11 51.5 °F 50.1 °F 29.93 in WSW 0.2 mph 2.3 mph 95 % 0.00 in
20:16 51.5 °F 50.1 °F 29.92 in WSW 0.1 mph 1.2 mph 95 % 0.00 in
20:21 51.5 °F 50.1 °F 29.93 in WSW 0.3 mph 2.3 mph 95 % 0.00 in
20:26 51.4 °F 50.0 °F 29.92 in WSW 0.3 mph 1.2 mph 95 % 0.00 in
20:31 51.4 °F 50.0 °F 29.92 in Calm   1.2 mph 95 % 0.00 in
20:36 51.4 °F 50.0 °F 29.92 in WSW 0.3 mph 2.0 mph 95 % 0.00 in
20:41 51.4 °F 50.0 °F 29.93 in WSW 0.1 mph 1.0 mph 95 % 0.00 in
20:46 51.3 °F 49.9 °F 29.93 in WSW 0.1 mph 1.0 mph 95 % 0.00 in
20:52 51.3 °F 49.9 °F 29.93 in WSW 0.2 mph 3.5 mph 95 % 0.00 in
20:57 51.3 °F 49.9 °F 29.93 in WSW 0.8 mph 2.3 mph 95 % 0.00 in
21:02 51.2 °F 49.8 °F 29.94 in NW 2.3 mph 6.9 mph 95 % 0.00 in
21:07 51.0 °F 49.6 °F 29.93 in North 2.8 mph 4.6 mph 95 % 0.00 in
21:12 50.7 °F 49.0 °F 29.94 in North 2.6 mph 3.5 mph 94 % 0.00 in
21:17 50.5 °F 48.6 °F 29.94 in NNW 3.7 mph 7.0 mph 93 % 0.00 in
21:22 50.3 °F 47.8 °F 29.94 in North 4.0 mph 6.9 mph 91 % 0.00 in
21:27 50.2 °F 47.4 °F 29.94 in NNE 5.0 mph 6.9 mph 90 % 0.00 in
21:32 50.1 °F 47.0 °F 29.94 in North 4.4 mph 6.9 mph 89 % 0.00 in
21:37 50.0 °F 46.9 °F 29.94 in North 3.6 mph 7.0 mph 89 % 0.00 in
21:42 49.9 °F 46.5 °F 29.94 in NE 4.0 mph 6.9 mph 88 % 0.00 in
21:47 49.9 °F 46.2 °F 29.94 in NNW 3.6 mph 6.9 mph 87 % 0.00 in
21:52 49.9 °F 46.2 °F 29.94 in NNE 4.4 mph 5.8 mph 87 % 0.00 in
21:57 49.8 °F 45.8 °F 29.95 in NNE 1.9 mph 5.8 mph 86 % 0.00 in
22:02 49.7 °F 45.7 °F 29.95 in North 1.5 mph 6.9 mph 86 % 0.00 in
22:07 49.8 °F 46.1 °F 29.95 in North 0.3 mph 3.5 mph 87 % 0.00 in
22:12 49.7 °F 46.0 °F 29.96 in NE 1.2 mph 7.0 mph 87 % 0.00 in
22:17 49.7 °F 46.0 °F 29.96 in North 0.3 mph 2.3 mph 87 % 0.00 in
22:22 49.6 °F 45.6 °F 29.96 in NNW 1.3 mph 3.5 mph 86 % 0.00 in
22:27 49.6 °F 45.6 °F 29.95 in NNE 3.0 mph 4.0 mph 86 % 0.00 in
22:32 49.5 °F 45.5 °F 29.95 in North 1.2 mph 3.5 mph 86 % 0.00 in
22:37 49.5 °F 45.2 °F 29.96 in NW 1.5 mph 3.5 mph 85 % 0.00 in
22:42 49.5 °F 45.2 °F 29.95 in North 2.4 mph 3.0 mph 85 % 0.00 in
22:47 49.5 °F 44.9 °F 29.95 in NNW 1.4 mph 5.8 mph 84 % 0.00 in
22:52 49.5 °F 45.2 °F 29.95 in NNW 1.0 mph 4.0 mph 85 % 0.00 in
22:57 49.5 °F 45.2 °F 29.95 in NNE 0.1 mph 3.5 mph 85 % 0.00 in
23:02 49.5 °F 45.2 °F 29.95 in NNE 1.2 mph 4.0 mph 85 % 0.00 in
23:07 49.5 °F 44.9 °F 29.95 in North 2.0 mph 5.0 mph 84 % 0.00 in
23:12 49.5 °F 44.9 °F 29.95 in NNW 1.6 mph 4.6 mph 84 % 0.00 in
23:17 49.5 °F 44.9 °F 29.95 in NNW 1.1 mph 3.5 mph 84 % 0.00 in
23:22 49.5 °F 44.9 °F 29.95 in North 1.1 mph 3.5 mph 84 % 0.00 in
23:27 49.4 °F 44.5 °F 29.95 in North 1.2 mph 3.5 mph 83 % 0.00 in
23:32 49.4 °F 44.8 °F 29.96 in North 0.7 mph 4.0 mph 84 % 0.00 in
23:37 49.5 °F 44.5 °F 29.96 in NNW 1.0 mph 4.0 mph 83 % 0.00 in
23:42 49.4 °F 44.5 °F 29.96 in North 0.9 mph 3.5 mph 83 % 0.00 in
23:47 49.4 °F 44.5 °F 29.96 in NNW 2.9 mph 6.9 mph 83 % 0.00 in
23:52 49.4 °F 44.5 °F 29.97 in NW 0.8 mph 2.3 mph 83 % 0.00 in
23:57 49.4 °F 44.5 °F 29.97 in North 1.2 mph 4.0 mph 83 % 0.00 in
Crab Meadow Weather
Compliments of Weather Underground - 3 mb

Script developed by  Jim McMurry - jmcmurry@mwt.net Adapted for the template by  Wim van der Kuil - Leuven-Template.eu

Lightning: The average number of deaths from lightning is more than 100 a year with several more deaths from lightning related fires. Lightning injuries account for 3-5 times than those of lightning deaths.